sensor_id;sensor_type;location;lat;lon;timestamp;pressure;altitude;pressure_sealevel;temperature;humidity
41800;BME280;27468;47.460;19.034;2023-02-14T00:01:48;102168.56;;;3.23;82.38
41800;BME280;27468;47.460;19.034;2023-02-14T00:04:15;102114.84;;;3.04;83.33
41800;BME280;27468;47.460;19.034;2023-02-14T00:06:41;102104.06;;;2.95;83.31
41800;BME280;27468;47.460;19.034;2023-02-14T00:09:10;102126.38;;;3.11;84.62
41800;BME280;27468;47.460;19.034;2023-02-14T00:11:37;102045.28;;;2.79;84.28
41800;BME280;27468;47.460;19.034;2023-02-14T00:14:03;102159.44;;;3.34;84.16
41800;BME280;27468;47.460;19.034;2023-02-14T00:16:47;102135.63;;;3.25;84.50
41800;BME280;27468;47.460;19.034;2023-02-14T00:19:14;102109.22;;;3.16;83.96
41800;BME280;27468;47.460;19.034;2023-02-14T00:21:40;102128.91;;;3.31;83.87
41800;BME280;27468;47.460;19.034;2023-02-14T00:24:11;102107.00;;;3.26;83.87
41800;BME280;27468;47.460;19.034;2023-02-14T00:26:37;102141.28;;;3.37;84.10
41800;BME280;27468;47.460;19.034;2023-02-14T00:29:03;102134.38;;;3.38;83.71
41800;BME280;27468;47.460;19.034;2023-02-14T00:31:29;102124.53;;;3.30;83.67
41800;BME280;27468;47.460;19.034;2023-02-14T00:33:54;102152.91;;;3.45;83.84
41800;BME280;27468;47.460;19.034;2023-02-14T00:36:20;102126.38;;;3.33;83.72
41800;BME280;27468;47.460;19.034;2023-02-14T00:38:45;102158.06;;;3.44;83.57
41800;BME280;27468;47.460;19.034;2023-02-14T00:41:11;102143.06;;;3.38;83.37
41800;BME280;27468;47.460;19.034;2023-02-14T00:43:47;102108.13;;;3.11;83.89
41800;BME280;27468;47.460;19.034;2023-02-14T00:46:14;102043.16;;;2.69;84.09
41800;BME280;27468;47.460;19.034;2023-02-14T00:48:40;102083.59;;;2.82;83.87
41800;BME280;27468;47.460;19.034;2023-02-14T00:51:06;102139.22;;;3.06;84.15
41800;BME280;27468;47.460;19.034;2023-02-14T00:53:32;102172.75;;;3.19;84.46
41800;BME280;27468;47.460;19.034;2023-02-14T00:55:57;102165.66;;;3.15;84.38
41800;BME280;27468;47.460;19.034;2023-02-14T00:58:23;102120.75;;;3.00;84.14
41800;BME280;27468;47.460;19.034;2023-02-14T01:00:48;102164.75;;;3.15;84.75
41800;BME280;27468;47.460;19.034;2023-02-14T01:03:14;102134.66;;;3.01;85.37
41800;BME280;27468;47.460;19.034;2023-02-14T01:05:39;102150.19;;;3.20;85.17
41800;BME280;27468;47.460;19.034;2023-02-14T01:08:05;102119.94;;;3.01;85.70
41800;BME280;27468;47.460;19.034;2023-02-14T01:10:30;102138.63;;;3.13;85.21
41800;BME280;27468;47.460;19.034;2023-02-14T01:12:56;102143.25;;;3.20;85.34
41800;BME280;27468;47.460;19.034;2023-02-14T01:15:22;102137.69;;;3.11;86.05
41800;BME280;27468;47.460;19.034;2023-02-14T01:17:47;102067.03;;;2.80;86.01
41800;BME280;27468;47.460;19.034;2023-02-14T01:20:12;102138.88;;;3.19;85.89
41800;BME280;27468;47.460;19.034;2023-02-14T01:22:39;102146.50;;;3.15;86.65
41800;BME280;27468;47.460;19.034;2023-02-14T01:25:05;102132.53;;;3.13;86.35
41800;BME280;27468;47.460;19.034;2023-02-14T01:27:31;102068.84;;;2.82;86.23
41800;BME280;27468;47.460;19.034;2023-02-14T01:29:56;102106.19;;;3.05;86.00
41800;BME280;27468;47.460;19.034;2023-02-14T01:32:22;102086.72;;;2.95;85.91
41800;BME280;27468;47.460;19.034;2023-02-14T01:34:48;102121.16;;;3.11;85.85
41800;BME280;27468;47.460;19.034;2023-02-14T01:37:14;102115.66;;;3.03;86.39
41800;BME280;27468;47.460;19.034;2023-02-14T01:39:39;102105.34;;;3.06;85.88
41800;BME280;27468;47.460;19.034;2023-02-14T01:42:05;102087.16;;;2.84;86.03
41800;BME280;27468;47.460;19.034;2023-02-14T01:46:57;102096.81;;;2.86;86.45
41800;BME280;27468;47.460;19.034;2023-02-14T01:49:27;102118.63;;;2.90;86.52
41800;BME280;27468;47.460;19.034;2023-02-14T01:52:07;102098.28;;;2.80;86.60
41800;BME280;27468;47.460;19.034;2023-02-14T01:54:37;102132.78;;;2.96;86.59
41800;BME280;27468;47.460;19.034;2023-02-14T01:57:07;102066.59;;;2.69;86.17
41800;BME280;27468;47.460;19.034;2023-02-14T01:59:41;102096.63;;;2.82;86.35
41800;BME280;27468;47.460;19.034;2023-02-14T02:02:08;102076.31;;;2.73;86.17
41800;BME280;27468;47.460;19.034;2023-02-14T02:04:37;102054.94;;;2.59;86.13
41800;BME280;27468;47.460;19.034;2023-02-14T02:07:06;102105.31;;;2.82;86.18
41800;BME280;27468;47.460;19.034;2023-02-14T02:09:34;102124.66;;;2.89;86.24
41800;BME280;27468;47.460;19.034;2023-02-14T02:12:00;102130.47;;;2.82;86.82
41800;BME280;27468;47.460;19.034;2023-02-14T02:14:27;102115.44;;;2.75;87.40
41800;BME280;27468;47.460;19.034;2023-02-14T02:17:43;102119.06;;;2.78;87.32
41800;BME280;27468;47.460;19.034;2023-02-14T02:29:13;102098.19;;;2.56;86.80
41800;BME280;27468;47.460;19.034;2023-02-14T02:48:05;102108.97;;;2.22;87.47
41800;BME280;27468;47.460;19.034;2023-02-14T02:50:40;102106.03;;;2.14;87.70
41800;BME280;27468;47.460;19.034;2023-02-14T02:56:36;102085.25;;;1.95;87.58
41800;BME280;27468;47.460;19.034;2023-02-14T02:59:30;102106.53;;;2.06;87.45
41800;BME280;27468;47.460;19.034;2023-02-14T03:02:08;102098.53;;;2.01;87.38
41800;BME280;27468;47.460;19.034;2023-02-14T03:04:38;102069.69;;;1.76;87.41
41800;BME280;27468;47.460;19.034;2023-02-14T03:07:36;102102.53;;;1.93;87.27
41800;BME280;27468;47.460;19.034;2023-02-14T03:21:13;102098.22;;;1.74;87.01
41800;BME280;27468;47.460;19.034;2023-02-14T03:26:46;102088.50;;;1.49;86.88
41800;BME280;27468;47.460;19.034;2023-02-14T03:34:30;102048.16;;;1.19;87.10
41800;BME280;27468;47.460;19.034;2023-02-14T03:37:20;102025.75;;;1.02;86.81
41800;BME280;27468;47.460;19.034;2023-02-14T03:45:23;102095.41;;;1.29;86.84
41800;BME280;27468;47.460;19.034;2023-02-14T03:47:50;102024.25;;;0.87;86.61
41800;BME280;27468;47.460;19.034;2023-02-14T03:50:18;102104.69;;;1.24;86.78
41800;BME280;27468;47.460;19.034;2023-02-14T03:52:46;102092.06;;;1.13;86.93
41800;BME280;27468;47.460;19.034;2023-02-14T03:55:16;102041.31;;;0.82;86.86
41800;BME280;27468;47.460;19.034;2023-02-14T03:58:03;102082.81;;;1.00;86.84
41800;BME280;27468;47.460;19.034;2023-02-14T04:00:36;102082.53;;;0.94;87.18
41800;BME280;27468;47.460;19.034;2023-02-14T04:03:08;102064.00;;;0.86;87.15
41800;BME280;27468;47.460;19.034;2023-02-14T04:05:36;102077.88;;;0.87;86.88
41800;BME280;27468;47.460;19.034;2023-02-14T04:08:06;102032.44;;;0.59;87.04
41800;BME280;27468;47.460;19.034;2023-02-14T04:10:32;102003.53;;;0.32;87.14
41800;BME280;27468;47.460;19.034;2023-02-14T04:12:58;102031.16;;;0.50;86.79
41800;BME280;27468;47.460;19.034;2023-02-14T04:15:23;102058.09;;;0.71;86.57
41800;BME280;27468;47.460;19.034;2023-02-14T04:17:49;102031.38;;;0.54;86.45
41800;BME280;27468;47.460;19.034;2023-02-14T04:20:33;102095.81;;;0.82;86.71
41800;BME280;27468;47.460;19.034;2023-02-14T04:22:59;102087.47;;;0.70;87.23
41800;BME280;27468;47.460;19.034;2023-02-14T04:25:24;102050.88;;;0.46;87.24
41800;BME280;27468;47.460;19.034;2023-02-14T04:27:50;101986.84;;;0.10;87.29
41800;BME280;27468;47.460;19.034;2023-02-14T04:30:16;102096.13;;;0.71;87.27
41800;BME280;27468;47.460;19.034;2023-02-14T04:32:45;102079.88;;;0.55;87.33
41800;BME280;27468;47.460;19.034;2023-02-14T04:35:11;102101.78;;;0.62;87.54
41800;BME280;27468;47.460;19.034;2023-02-14T04:37:38;102108.59;;;0.60;87.51
41800;BME280;27468;47.460;19.034;2023-02-14T04:40:03;102047.91;;;0.21;87.46
41800;BME280;27468;47.460;19.034;2023-02-14T04:42:29;102051.47;;;0.23;87.14
41800;BME280;27468;47.460;19.034;2023-02-14T04:44:55;102109.88;;;0.50;87.28
41800;BME280;27468;47.460;19.034;2023-02-14T04:47:20;102076.91;;;0.30;87.20
41800;BME280;27468;47.460;19.034;2023-02-14T04:49:45;102085.56;;;0.30;87.47
41800;BME280;27468;47.460;19.034;2023-02-14T04:52:11;102051.84;;;0.13;87.33
41800;BME280;27468;47.460;19.034;2023-02-14T04:54:37;102020.81;;;-0.04;87.27
41800;BME280;27468;47.460;19.034;2023-02-14T04:57:03;102099.00;;;0.40;87.41
41800;BME280;27468;47.460;19.034;2023-02-14T04:59:28;102065.69;;;0.13;87.59
41800;BME280;27468;47.460;19.034;2023-02-14T05:01:54;102025.25;;;-0.01;86.71
41800;BME280;27468;47.460;19.034;2023-02-14T05:04:19;102102.25;;;0.36;87.38
41800;BME280;27468;47.460;19.034;2023-02-14T05:06:45;102031.63;;;-0.12;87.39
41800;BME280;27468;47.460;19.034;2023-02-14T05:09:11;102088.59;;;0.22;87.37
41800;BME280;27468;47.460;19.034;2023-02-14T05:11:37;102085.94;;;0.20;87.64
41800;BME280;27468;47.460;19.034;2023-02-14T05:14:02;102080.22;;;0.10;87.89
41800;BME280;27468;47.460;19.034;2023-02-14T05:16:28;102027.66;;;-0.22;87.94
41800;BME280;27468;47.460;19.034;2023-02-14T05:18:53;102102.22;;;0.18;88.75
41800;BME280;27468;47.460;19.034;2023-02-14T05:21:19;102024.84;;;-0.26;89.00
41800;BME280;27468;47.460;19.034;2023-02-14T05:23:44;102085.25;;;0.07;89.09
41800;BME280;27468;47.460;19.034;2023-02-14T05:26:10;102104.09;;;0.20;89.42
41800;BME280;27468;47.460;19.034;2023-02-14T05:28:35;102026.84;;;-0.21;89.26
41800;BME280;27468;47.460;19.034;2023-02-14T05:31:01;102045.31;;;-0.15;89.98
41800;BME280;27468;47.460;19.034;2023-02-14T05:33:26;102107.19;;;0.13;90.47
41800;BME280;27468;47.460;19.034;2023-02-14T05:35:52;102117.78;;;0.18;90.83
41800;BME280;27468;47.460;19.034;2023-02-14T05:38:17;102036.25;;;-0.23;90.94
41800;BME280;27468;47.460;19.034;2023-02-14T05:40:43;102070.00;;;-0.05;91.20
41800;BME280;27468;47.460;19.034;2023-02-14T05:43:09;102099.41;;;0.13;91.15
41800;BME280;27468;47.460;19.034;2023-02-14T05:45:35;102069.91;;;-0.07;91.24
41800;BME280;27468;47.460;19.034;2023-02-14T05:48:00;102062.88;;;-0.09;91.81
41800;BME280;27468;47.460;19.034;2023-02-14T05:50:26;102107.75;;;0.08;91.90
41800;BME280;27468;47.460;19.034;2023-02-14T05:52:52;102086.72;;;0.02;93.28
41800;BME280;27468;47.460;19.034;2023-02-14T05:55:18;102017.72;;;-0.30;93.18
41800;BME280;27468;47.460;19.034;2023-02-14T05:57:43;102116.69;;;0.30;93.05
41800;BME280;27468;47.460;19.034;2023-02-14T06:00:09;102125.38;;;0.31;93.46
41800;BME280;27468;47.460;19.034;2023-02-14T06:02:35;102024.25;;;-0.21;93.28
41800;BME280;27468;47.460;19.034;2023-02-14T06:05:00;102095.91;;;0.13;93.29
41800;BME280;27468;47.460;19.034;2023-02-14T06:07:26;102037.97;;;-0.23;92.86
41800;BME280;27468;47.460;19.034;2023-02-14T06:09:51;102103.47;;;0.08;93.18
41800;BME280;27468;47.460;19.034;2023-02-14T06:12:17;102134.69;;;0.27;93.44
41800;BME280;27468;47.460;19.034;2023-02-14T06:14:42;102091.91;;;0.02;93.51
41800;BME280;27468;47.460;19.034;2023-02-14T06:17:09;102115.94;;;0.15;93.43
41800;BME280;27468;47.460;19.034;2023-02-14T06:19:35;102121.13;;;0.15;93.54
41800;BME280;27468;47.460;19.034;2023-02-14T06:22:01;102124.91;;;0.22;93.33
41800;BME280;27468;47.460;19.034;2023-02-14T06:24:26;102143.59;;;0.32;93.19
41800;BME280;27468;47.460;19.034;2023-02-14T06:26:52;102072.34;;;-0.10;93.21
41800;BME280;27468;47.460;19.034;2023-02-14T06:29:18;102108.66;;;0.08;93.13
41800;BME280;27468;47.460;19.034;2023-02-14T06:31:43;102136.03;;;0.19;93.21
41800;BME280;27468;47.460;19.034;2023-02-14T06:34:09;102118.53;;;0.15;93.21
41800;BME280;27468;47.460;19.034;2023-02-14T06:36:34;102082.63;;;-0.11;93.27
41800;BME280;27468;47.460;19.034;2023-02-14T06:39:00;102163.03;;;0.41;93.10
41800;BME280;27468;47.460;19.034;2023-02-14T06:41:26;102183.06;;;0.43;93.08
41800;BME280;27468;47.460;19.034;2023-02-14T06:43:52;102147.00;;;0.31;93.04
41800;BME280;27468;47.460;19.034;2023-02-14T06:46:18;102176.47;;;0.50;92.97
41800;BME280;27468;47.460;19.034;2023-02-14T06:48:44;102122.41;;;0.23;92.57
41800;BME280;27468;47.460;19.034;2023-02-14T06:51:10;102180.09;;;0.53;93.07
41800;BME280;27468;47.460;19.034;2023-02-14T06:53:35;102156.53;;;0.49;93.14
41800;BME280;27468;47.460;19.034;2023-02-14T06:56:01;102162.38;;;0.45;93.17
41800;BME280;27468;47.460;19.034;2023-02-14T06:58:26;102124.13;;;0.41;92.77
41800;BME280;27468;47.460;19.034;2023-02-14T07:00:54;102120.56;;;0.39;92.45
41800;BME280;27468;47.460;19.034;2023-02-14T07:03:19;102195.22;;;0.80;92.90
41800;BME280;27468;47.460;19.034;2023-02-14T07:05:45;102121.00;;;0.48;93.10
41800;BME280;27468;47.460;19.034;2023-02-14T07:08:10;102109.00;;;0.50;93.02
41800;BME280;27468;47.460;19.034;2023-02-14T07:10:36;102146.28;;;0.70;93.30
41800;BME280;27468;47.460;19.034;2023-02-14T07:13:02;102128.09;;;0.70;93.23
41800;BME280;27468;47.460;19.034;2023-02-14T07:15:27;102133.66;;;0.77;93.22
41800;BME280;27468;47.460;19.034;2023-02-14T07:17:53;102174.22;;;1.11;93.46
41800;BME280;27468;47.460;19.034;2023-02-14T07:20:19;102146.94;;;1.01;94.11
41800;BME280;27468;47.460;19.034;2023-02-14T07:22:44;102115.41;;;0.93;94.60
41800;BME280;27468;47.460;19.034;2023-02-14T07:25:10;102125.13;;;1.17;94.78
41800;BME280;27468;47.460;19.034;2023-02-14T07:27:36;102125.41;;;1.23;94.55
41800;BME280;27468;47.460;19.034;2023-02-14T07:30:03;102172.84;;;1.56;95.11
41800;BME280;27468;47.460;19.034;2023-02-14T07:32:29;102190.13;;;1.75;95.10
41800;BME280;27468;47.460;19.034;2023-02-14T07:34:54;102158.75;;;1.70;95.17
41800;BME280;27468;47.460;19.034;2023-02-14T07:37:19;102171.91;;;1.94;94.98
41800;BME280;27468;47.460;19.034;2023-02-14T07:39:45;102138.72;;;1.88;94.42
41800;BME280;27468;47.460;19.034;2023-02-14T07:42:11;102179.16;;;2.20;94.20
41800;BME280;27468;47.460;19.034;2023-02-14T07:44:37;102199.28;;;2.45;93.66
41800;BME280;27468;47.460;19.034;2023-02-14T07:47:04;102140.06;;;2.19;92.93
41800;BME280;27468;47.460;19.034;2023-02-14T07:49:30;102191.09;;;2.57;92.08
41800;BME280;27468;47.460;19.034;2023-02-14T07:51:55;102181.75;;;2.62;91.82
41800;BME280;27468;47.460;19.034;2023-02-14T07:54:21;102203.34;;;2.80;91.56
41800;BME280;27468;47.460;19.034;2023-02-14T07:56:46;102142.97;;;2.47;91.53
41800;BME280;27468;47.460;19.034;2023-02-14T07:59:11;102152.75;;;2.53;90.98
41800;BME280;27468;47.460;19.034;2023-02-14T08:01:37;102146.81;;;2.57;91.05
41800;BME280;27468;47.460;19.034;2023-02-14T08:04:02;102193.88;;;2.82;90.56
41800;BME280;27468;47.460;19.034;2023-02-14T08:06:28;102212.72;;;2.97;90.56
41800;BME280;27468;47.460;19.034;2023-02-14T08:08:53;102180.16;;;2.86;89.41
41800;BME280;27468;47.460;19.034;2023-02-14T08:11:19;102161.69;;;2.80;89.41
41800;BME280;27468;47.460;19.034;2023-02-14T08:14:10;102189.38;;;3.01;88.88
41800;BME280;27468;47.460;19.034;2023-02-14T08:16:36;102162.91;;;2.90;89.20
41800;BME280;27468;47.460;19.034;2023-02-14T08:19:02;102138.47;;;2.86;88.62
41800;BME280;27468;47.460;19.034;2023-02-14T08:21:28;102183.72;;;3.11;88.34
41800;BME280;27468;47.460;19.034;2023-02-14T08:23:54;102195.44;;;3.22;88.29
41800;BME280;27468;47.460;19.034;2023-02-14T08:26:20;102171.03;;;3.20;88.14
41800;BME280;27468;47.460;19.034;2023-02-14T08:28:45;102191.84;;;3.41;87.46
41800;BME280;27468;47.460;19.034;2023-02-14T08:31:11;102130.59;;;3.07;87.11
41800;BME280;27468;47.460;19.034;2023-02-14T08:33:36;102179.63;;;3.40;86.51
41800;BME280;27468;47.460;19.034;2023-02-14T08:36:02;102158.88;;;3.43;86.42
41800;BME280;27468;47.460;19.034;2023-02-14T08:38:28;102207.00;;;3.75;85.82
41800;BME280;27468;47.460;19.034;2023-02-14T08:40:57;102130.09;;;3.40;85.85
41800;BME280;27468;47.460;19.034;2023-02-14T08:43:23;102170.25;;;3.69;85.36
41800;BME280;27468;47.460;19.034;2023-02-14T08:45:51;102206.81;;;3.92;84.61
41800;BME280;27468;47.460;19.034;2023-02-14T08:48:17;102187.75;;;3.95;84.14
41800;BME280;27468;47.460;19.034;2023-02-14T08:50:43;102189.75;;;4.02;83.91
41800;BME280;27468;47.460;19.034;2023-02-14T08:53:09;102204.06;;;4.13;83.06
41800;BME280;27468;47.460;19.034;2023-02-14T08:55:35;102166.16;;;3.99;82.86
41800;BME280;27468;47.460;19.034;2023-02-14T08:58:01;102183.31;;;4.18;82.85
41800;BME280;27468;47.460;19.034;2023-02-14T09:00:28;102154.00;;;4.00;81.71
41800;BME280;27468;47.460;19.034;2023-02-14T09:02:53;102137.34;;;3.96;81.08
41800;BME280;27468;47.460;19.034;2023-02-14T09:05:19;102188.34;;;4.37;81.18
41800;BME280;27468;47.460;19.034;2023-02-14T09:07:47;102188.69;;;4.46;80.86
41800;BME280;27468;47.460;19.034;2023-02-14T09:10:13;102183.44;;;4.46;80.27
41800;BME280;27468;47.460;19.034;2023-02-14T09:12:39;102141.03;;;4.28;79.70
41800;BME280;27468;47.460;19.034;2023-02-14T09:15:06;102188.47;;;4.67;79.57
41800;BME280;27468;47.460;19.034;2023-02-14T09:17:32;102146.06;;;4.47;79.53
41800;BME280;27468;47.460;19.034;2023-02-14T09:19:58;102179.16;;;4.75;79.24
41800;BME280;27468;47.460;19.034;2023-02-14T09:22:23;102175.56;;;4.72;78.24
41800;BME280;27468;47.460;19.034;2023-02-14T09:24:49;102194.63;;;4.94;78.13
41800;BME280;27468;47.460;19.034;2023-02-14T09:27:14;102118.38;;;4.52;77.73
41800;BME280;27468;47.460;19.034;2023-02-14T09:29:40;102185.94;;;4.95;77.30
41800;BME280;27468;47.460;19.034;2023-02-14T09:32:05;102162.25;;;4.91;77.10
41800;BME280;27468;47.460;19.034;2023-02-14T09:34:33;102206.53;;;5.13;76.27
41800;BME280;27468;47.460;19.034;2023-02-14T09:36:59;102191.84;;;5.17;75.46
41800;BME280;27468;47.460;19.034;2023-02-14T09:39:42;102174.59;;;5.23;73.70
41800;BME280;27468;47.460;19.034;2023-02-14T09:44:46;102198.41;;;5.61;72.19
41800;BME280;27468;47.460;19.034;2023-02-14T09:50:14;102150.19;;;5.53;71.28
41800;BME280;27468;47.460;19.034;2023-02-14T09:52:44;102141.31;;;5.48;70.64
41800;BME280;27468;47.460;19.034;2023-02-14T09:55:15;102146.16;;;5.64;69.91
41800;BME280;27468;47.460;19.034;2023-02-14T09:58:14;102205.59;;;5.98;68.83
41800;BME280;27468;47.460;19.034;2023-02-14T10:00:45;102180.94;;;5.90;67.87
41800;BME280;27468;47.460;19.034;2023-02-14T10:11:17;102183.09;;;6.05;67.72
41800;BME280;27468;47.460;19.034;2023-02-14T10:13:56;102125.66;;;5.81;67.68
41800;BME280;27468;47.460;19.034;2023-02-14T10:16:31;102190.88;;;6.35;67.87
41800;BME280;27468;47.460;19.034;2023-02-14T10:22:00;102186.59;;;6.38;65.81
41800;BME280;27468;47.460;19.034;2023-02-14T10:26:54;102102.94;;;6.10;65.80
41800;BME280;27468;47.460;19.034;2023-02-14T10:29:22;102144.75;;;6.41;65.71
41800;BME280;27468;47.460;19.034;2023-02-14T10:31:56;102167.06;;;6.60;65.48
41800;BME280;27468;47.460;19.034;2023-02-14T10:34:48;102172.66;;;6.74;64.52
41800;BME280;27468;47.460;19.034;2023-02-14T10:53:51;102163.91;;;7.11;61.22
41800;BME280;27468;47.460;19.034;2023-02-14T10:56:42;102153.50;;;7.15;61.69
41800;BME280;27468;47.460;19.034;2023-02-14T10:59:33;102149.13;;;7.14;60.41
41800;BME280;27468;47.460;19.034;2023-02-14T11:02:00;102142.06;;;7.12;60.15
41800;BME280;27468;47.460;19.034;2023-02-14T11:04:26;102128.91;;;7.10;60.02
41800;BME280;27468;47.460;19.034;2023-02-14T11:06:52;102141.56;;;7.28;60.55
41800;BME280;27468;47.460;19.034;2023-02-14T11:09:18;102150.38;;;7.32;60.52
41800;BME280;27468;47.460;19.034;2023-02-14T11:11:55;102143.56;;;7.40;60.13
41800;BME280;27468;47.460;19.034;2023-02-14T11:14:32;102138.19;;;7.34;59.94
41800;BME280;27468;47.460;19.034;2023-02-14T11:17:25;102113.44;;;7.22;60.26
41800;BME280;27468;47.460;19.034;2023-02-14T11:20:00;102070.22;;;7.05;59.85
41800;BME280;27468;47.460;19.034;2023-02-14T11:22:32;102106.63;;;7.31;59.14
41800;BME280;27468;47.460;19.034;2023-02-14T11:25:10;102105.84;;;7.35;59.23
41800;BME280;27468;47.460;19.034;2023-02-14T11:27:43;102116.41;;;7.38;58.90
41800;BME280;27468;47.460;19.034;2023-02-14T11:30:26;102130.56;;;7.46;59.04
41800;BME280;27468;47.460;19.034;2023-02-14T11:32:53;102123.75;;;7.55;59.11
41800;BME280;27468;47.460;19.034;2023-02-14T11:35:22;102123.59;;;7.46;58.15
41800;BME280;27468;47.460;19.034;2023-02-14T11:37:53;102130.38;;;7.37;57.97
41800;BME280;27468;47.460;19.034;2023-02-14T11:40:26;102105.94;;;7.39;58.30
41800;BME280;27468;47.460;19.034;2023-02-14T11:42:53;102141.50;;;7.69;58.52
41800;BME280;27468;47.460;19.034;2023-02-14T11:45:33;102095.66;;;7.51;58.35
41800;BME280;27468;47.460;19.034;2023-02-14T11:50:40;102119.06;;;7.84;57.71
41800;BME280;27468;47.460;19.034;2023-02-14T11:53:12;102131.59;;;7.98;57.84
41800;BME280;27468;47.460;19.034;2023-02-14T11:55:50;102126.38;;;7.99;57.33
41800;BME280;27468;47.460;19.034;2023-02-14T11:58:32;102084.00;;;7.81;56.76
41800;BME280;27468;47.460;19.034;2023-02-14T12:00:59;102132.72;;;8.13;56.15
41800;BME280;27468;47.460;19.034;2023-02-14T12:03:28;102129.31;;;8.19;55.85
41800;BME280;27468;47.460;19.034;2023-02-14T12:05:55;102117.03;;;8.16;55.56
41800;BME280;27468;47.460;19.034;2023-02-14T12:08:27;102101.91;;;8.02;54.80
41800;BME280;27468;47.460;19.034;2023-02-14T12:11:15;102079.94;;;7.98;54.79
41800;BME280;27468;47.460;19.034;2023-02-14T12:13:54;102119.81;;;8.25;54.07
41800;BME280;27468;47.460;19.034;2023-02-14T12:16:32;102090.63;;;8.07;54.07
41800;BME280;27468;47.460;19.034;2023-02-14T12:19:06;102128.81;;;8.38;54.54
41800;BME280;27468;47.460;19.034;2023-02-14T12:21:43;102099.53;;;8.18;54.59
41800;BME280;27468;47.460;19.034;2023-02-14T12:24:30;102120.03;;;8.36;53.57
41800;BME280;27468;47.460;19.034;2023-02-14T12:30:10;102086.56;;;8.27;53.97
41800;BME280;27468;47.460;19.034;2023-02-14T12:32:46;102042.44;;;8.07;53.34
41800;BME280;27468;47.460;19.034;2023-02-14T12:44:03;102090.19;;;8.33;54.18
41800;BME280;27468;47.460;19.034;2023-02-14T12:46:49;102088.53;;;8.39;54.05
41800;BME280;27468;47.460;19.034;2023-02-14T12:52:24;102077.34;;;8.51;53.69
41800;BME280;27468;47.460;19.034;2023-02-14T12:55:12;102049.81;;;8.29;53.08
41800;BME280;27468;47.460;19.034;2023-02-14T12:57:56;102076.50;;;8.53;53.22
41800;BME280;27468;47.460;19.034;2023-02-14T13:00:48;102079.22;;;8.58;53.18
41800;BME280;27468;47.460;19.034;2023-02-14T13:11:39;102068.81;;;8.67;53.03
41800;BME280;27468;47.460;19.034;2023-02-14T13:22:33;102037.09;;;8.55;52.47
41800;BME280;27468;47.460;19.034;2023-02-14T13:25:03;102076.84;;;8.78;52.94
41800;BME280;27468;47.460;19.034;2023-02-14T13:27:38;102055.75;;;8.73;52.47
41800;BME280;27468;47.460;19.034;2023-02-14T13:30:20;102042.50;;;8.67;52.97
41800;BME280;27468;47.460;19.034;2023-02-14T13:32:50;102026.72;;;8.64;53.28
41800;BME280;27468;47.460;19.034;2023-02-14T13:35:18;102068.22;;;8.86;53.23
41800;BME280;27468;47.460;19.034;2023-02-14T13:37:54;101985.16;;;8.39;53.56
41800;BME280;27468;47.460;19.034;2023-02-14T13:40:23;102071.78;;;8.90;54.13
41800;BME280;27468;47.460;19.034;2023-02-14T13:42:53;102055.06;;;8.86;53.48
41800;BME280;27468;47.460;19.034;2023-02-14T13:45:51;102070.00;;;8.89;53.16
41800;BME280;27468;47.460;19.034;2023-02-14T13:48:18;102060.34;;;8.86;53.21
41800;BME280;27468;47.460;19.034;2023-02-14T13:50:54;102046.19;;;8.78;53.26
41800;BME280;27468;47.460;19.034;2023-02-14T13:53:38;102048.97;;;8.89;53.00
41800;BME280;27468;47.460;19.034;2023-02-14T13:58:45;102058.59;;;8.88;53.20
41800;BME280;27468;47.460;19.034;2023-02-14T14:01:41;102063.94;;;8.93;53.20
41800;BME280;27468;47.460;19.034;2023-02-14T14:17:32;102068.34;;;8.94;53.31
41800;BME280;27468;47.460;19.034;2023-02-14T14:20:00;102014.44;;;8.63;53.34
41800;BME280;27468;47.460;19.034;2023-02-14T14:22:27;102045.25;;;8.75;53.37
41800;BME280;27468;47.460;19.034;2023-02-14T14:25:05;102022.22;;;8.55;53.20
41800;BME280;27468;47.460;19.034;2023-02-14T14:27:45;102060.94;;;8.69;53.11
41800;BME280;27468;47.460;19.034;2023-02-14T14:30:18;102070.66;;;8.73;53.41
41800;BME280;27468;47.460;19.034;2023-02-14T14:32:44;102073.19;;;8.67;53.64
41800;BME280;27468;47.460;19.034;2023-02-14T14:35:18;102062.72;;;8.70;53.91
41800;BME280;27468;47.460;19.034;2023-02-14T14:37:53;102021.16;;;8.43;53.58
41800;BME280;27468;47.460;19.034;2023-02-14T14:40:24;102057.41;;;8.64;54.08
41800;BME280;27468;47.460;19.034;2023-02-14T14:42:51;102001.78;;;8.38;54.28
41800;BME280;27468;47.460;19.034;2023-02-14T14:45:25;102014.97;;;8.39;53.95
41800;BME280;27468;47.460;19.034;2023-02-14T14:47:54;102009.69;;;8.39;54.40
41800;BME280;27468;47.460;19.034;2023-02-14T14:50:24;102006.16;;;8.36;54.40
41800;BME280;27468;47.460;19.034;2023-02-14T14:52:53;102044.06;;;8.51;54.33
41800;BME280;27468;47.460;19.034;2023-02-14T14:55:35;102038.72;;;8.47;54.64
41800;BME280;27468;47.460;19.034;2023-02-14T14:58:10;101990.97;;;8.19;54.75
41800;BME280;27468;47.460;19.034;2023-02-14T15:00:51;102016.56;;;8.31;54.81
41800;BME280;27468;47.460;19.034;2023-02-14T15:03:21;102053.66;;;8.49;54.74
41800;BME280;27468;47.460;19.034;2023-02-14T15:05:49;102016.41;;;8.22;54.53
41800;BME280;27468;47.460;19.034;2023-02-14T15:13:48;101983.53;;;7.91;54.63
41800;BME280;27468;47.460;19.034;2023-02-14T15:16:21;102048.88;;;8.25;55.15
41800;BME280;27468;47.460;19.034;2023-02-14T15:18:48;102040.75;;;8.12;54.89
41800;BME280;27468;47.460;19.034;2023-02-14T15:21:15;101972.75;;;7.76;55.38
41800;BME280;27468;47.460;19.034;2023-02-14T15:23:42;101992.03;;;7.76;55.58
41800;BME280;27468;47.460;19.034;2023-02-14T15:26:31;102063.50;;;8.08;55.87
41800;BME280;27468;47.460;19.034;2023-02-14T15:29:00;102059.06;;;8.06;55.78
41800;BME280;27468;47.460;19.034;2023-02-14T15:31:38;102072.09;;;8.00;56.02